createdAt,value
2022-08-02T00:02:24.943Z,17.77
2022-08-02T00:07:26.919Z,17.72
2022-08-02T00:12:28.849Z,17.67
2022-08-02T00:17:30.804Z,17.65
2022-08-02T00:22:32.686Z,17.66
2022-08-02T00:27:34.735Z,17.68
2022-08-02T00:32:36.613Z,17.69
2022-08-02T00:37:40.360Z,17.68
2022-08-02T00:42:43.836Z,17.65
2022-08-02T00:47:45.738Z,17.62
2022-08-02T00:52:47.679Z,17.59
2022-08-02T00:57:50.016Z,17.58
2022-08-02T01:02:52.126Z,17.54
2022-08-02T01:07:54.063Z,17.48
2022-08-02T01:12:55.938Z,17.41
2022-08-02T01:18:11.657Z,17.33
2022-08-02T01:23:20.401Z,17.26
2022-08-02T01:28:41.382Z,17.16
2022-08-02T01:33:47.770Z,17.03
2022-08-02T01:38:50.778Z,16.91
2022-08-02T01:43:56.749Z,16.81
2022-08-02T01:49:04.051Z,16.70
2022-08-02T01:54:13.596Z,16.61
2022-08-02T01:59:18.968Z,16.51
2022-08-02T02:04:23.305Z,16.42
2022-08-02T02:09:28.638Z,16.29
2022-08-02T02:14:30.959Z,16.16
2022-08-02T02:19:33.499Z,16.06
2022-08-02T02:24:38.567Z,16.02
2022-08-02T02:29:44.668Z,16.01
2022-08-02T02:34:47.899Z,15.95
2022-08-02T02:39:52.130Z,15.89
2022-08-02T02:44:54.537Z,15.84
2022-08-02T02:49:56.543Z,15.77
2022-08-02T02:55:00.750Z,15.67
2022-08-02T03:00:04.116Z,15.64
2022-08-02T03:05:11.996Z,15.61
2022-08-02T03:10:13.974Z,15.55
2022-08-02T03:15:17.376Z,15.47
2022-08-02T03:20:20.461Z,15.41
2022-08-02T03:25:22.495Z,15.38
2022-08-02T03:30:27.228Z,15.35
2022-08-02T03:35:29.526Z,15.35
2022-08-02T03:40:31.664Z,15.36
2022-08-02T03:45:34.198Z,15.35
2022-08-02T03:50:36.281Z,15.37
2022-08-02T03:55:39.862Z,15.46
2022-08-02T04:00:42.035Z,15.58
2022-08-02T04:05:59.341Z,15.67
2022-08-02T04:11:25.466Z,16.04
2022-08-02T04:16:44.238Z,16.83
2022-08-02T04:21:51.395Z,17.24
2022-08-02T04:27:19.370Z,17.52
2022-08-02T04:32:21.850Z,17.84
2022-08-02T04:37:24.842Z,18.31
2022-08-02T04:42:29.928Z,19.07
2022-08-02T04:47:54.257Z,19.79
2022-08-02T04:52:57.129Z,20.47
2022-08-02T04:58:36.878Z,21.32
2022-08-02T05:03:30.300Z,21.97
2022-08-02T05:08:32.372Z,22.09
2022-08-02T05:13:34.547Z,21.75
2022-08-02T05:18:56.743Z,21.02
2022-08-02T05:24:00.242Z,20.23
2022-08-02T05:29:04.227Z,20.04
2022-08-02T05:34:11.352Z,19.84
2022-08-02T05:39:19.033Z,19.53
2022-08-02T05:44:21.846Z,19.42
2022-08-02T05:49:23.861Z,19.64
2022-08-02T05:55:13.099Z,19.85
2022-08-02T06:00:15.955Z,19.97
2022-08-02T06:05:21.526Z,20.30
2022-08-02T06:10:36.318Z,20.63
2022-08-02T06:15:53.369Z,20.83
2022-08-02T06:20:59.076Z,21.09
2022-08-02T06:26:22.831Z,21.24
2022-08-02T06:31:25.259Z,20.94
2022-08-02T06:36:41.450Z,20.64
2022-08-02T06:41:49.035Z,20.92
2022-08-02T06:47:11.422Z,21.24
2022-08-02T06:52:18.727Z,21.22
2022-08-02T06:57:21.154Z,21.21
2022-08-02T07:02:23.762Z,21.01
2022-08-02T07:07:27.725Z,21.02
2022-08-02T07:12:31.170Z,21.19
2022-08-02T07:17:34.166Z,21.77
2022-08-02T07:22:36.488Z,22.16
2022-08-02T07:27:38.758Z,22.41
2022-08-02T07:32:40.740Z,22.51
2022-08-02T07:37:55.449Z,22.37
2022-08-02T07:43:03.901Z,22.20
2022-08-02T07:48:08.146Z,22.34
2022-08-02T07:53:10.110Z,22.66
2022-08-02T07:58:13.510Z,22.91
2022-08-02T08:03:16.454Z,23.09
2022-08-02T08:08:22.154Z,23.11
2022-08-02T08:13:24.907Z,23.23
2022-08-02T08:18:26.884Z,23.30
2022-08-02T08:23:30.106Z,23.37
2022-08-02T08:28:39.632Z,23.51
2022-08-02T08:33:52.351Z,23.62
2022-08-02T08:38:55.975Z,23.76
2022-08-02T08:44:00.674Z,23.55
2022-08-02T08:49:12.873Z,23.45
2022-08-02T08:54:18.452Z,23.17
2022-08-02T08:59:23.072Z,23.56
2022-08-02T09:04:25.063Z,23.63
2022-08-02T09:09:29.453Z,23.55
2022-08-02T09:14:32.559Z,24.04
2022-08-02T09:19:36.546Z,24.08
2022-08-02T09:24:44.848Z,24.01
2022-08-02T09:30:12.497Z,23.97
2022-08-02T09:35:16.728Z,24.03
2022-08-02T09:40:34.972Z,24.18
2022-08-02T09:45:40.634Z,24.29
2022-08-02T09:50:45.523Z,24.50
2022-08-02T09:55:56.409Z,24.59
2022-08-02T10:00:58.655Z,24.07
2022-08-02T10:06:03.111Z,24.10
2022-08-02T10:11:05.568Z,24.63
2022-08-02T10:16:07.776Z,24.97
2022-08-02T10:21:13.782Z,25.25
2022-08-02T10:26:17.748Z,25.21
2022-08-02T10:31:24.150Z,25.36
2022-08-02T10:36:28.975Z,25.72
2022-08-02T10:41:49.427Z,25.08
2022-08-02T10:47:16.880Z,25.00
2022-08-02T10:52:21.308Z,25.47
2022-08-02T10:57:26.194Z,25.84
2022-08-02T11:02:43.070Z,25.95
2022-08-02T11:07:49.899Z,25.79
2022-08-02T11:13:01.401Z,26.15
2022-08-02T11:18:04.169Z,26.04
2022-08-02T11:23:44.298Z,26.17
2022-08-02T11:28:50.916Z,26.21
2022-08-02T11:33:54.037Z,25.91
2022-08-02T11:39:15.863Z,25.68
2022-08-02T11:44:19.301Z,25.87
2022-08-02T11:49:28.901Z,25.85
2022-08-02T11:54:35.412Z,26.14
2022-08-02T11:59:39.152Z,26.23
2022-08-02T12:04:41.665Z,26.15
2022-08-02T12:09:46.388Z,26.27
2022-08-02T12:14:48.360Z,26.46
2022-08-02T12:19:57.232Z,26.77
2022-08-02T12:24:59.574Z,27.04
2022-08-02T12:30:10.385Z,27.41
2022-08-02T12:35:26.491Z,27.15
2022-08-02T12:40:31.996Z,26.65
2022-08-02T12:45:55.198Z,26.30
2022-08-02T12:50:57.653Z,26.25
2022-08-02T12:56:03.661Z,26.57
2022-08-02T13:01:06.026Z,26.60
2022-08-02T13:06:32.331Z,26.58
2022-08-02T13:11:30.366Z,26.88
2022-08-02T13:16:34.237Z,26.97
2022-08-02T13:22:01.560Z,27.38
2022-08-02T13:27:08.709Z,27.67
2022-08-02T13:32:11.779Z,27.36
2022-08-02T13:37:14.244Z,27.42
2022-08-02T13:42:18.851Z,27.01
2022-08-02T13:47:35.914Z,27.12
2022-08-02T13:52:44.250Z,27.46
2022-08-02T13:57:46.212Z,27.48
2022-08-02T14:02:55.767Z,27.71
2022-08-02T14:08:00.273Z,27.52
2022-08-02T14:13:04.028Z,27.30
2022-08-02T14:18:06.335Z,27.08
2022-08-02T14:23:08.371Z,27.30
2022-08-02T14:28:15.478Z,27.76
2022-08-02T14:33:22.387Z,27.90
2022-08-02T14:38:28.758Z,27.80
2022-08-02T14:43:54.527Z,28.05
2022-08-02T14:49:06.038Z,27.65
2022-08-02T14:54:12.018Z,27.28
2022-08-02T14:59:20.017Z,27.20
2022-08-02T15:04:25.482Z,27.17
2022-08-02T15:09:40.159Z,27.30
2022-08-02T15:14:45.583Z,27.22
2022-08-02T15:19:59.325Z,27.24
2022-08-02T15:25:03.657Z,27.13
2022-08-02T15:30:22.901Z,27.25
2022-08-02T15:35:28.201Z,27.41
2022-08-02T15:40:32.574Z,27.49
2022-08-02T15:45:35.605Z,27.28
2022-08-02T15:50:37.747Z,27.32
2022-08-02T15:56:04.474Z,27.26
2022-08-02T16:01:05.187Z,27.28
2022-08-02T16:06:07.458Z,27.40
2022-08-02T16:11:09.772Z,27.33
2022-08-02T16:16:15.022Z,27.20
2022-08-02T16:21:23.171Z,27.19
2022-08-02T16:26:26.109Z,27.28
2022-08-02T16:31:28.266Z,27.27
2022-08-02T16:36:30.766Z,27.23
2022-08-02T16:41:51.609Z,27.22
2022-08-02T16:46:55.633Z,27.21
2022-08-02T16:51:58.040Z,27.21
2022-08-02T16:57:03.487Z,27.95
2022-08-02T17:02:11.676Z,28.96
2022-08-02T17:08:16.499Z,29.76
2022-08-02T17:12:39.890Z,29.93
2022-08-02T17:17:44.444Z,30.31
2022-08-02T17:22:49.923Z,30.27
2022-08-02T17:27:56.001Z,29.66
2022-08-02T17:33:01.078Z,29.46
2022-08-02T17:38:03.619Z,29.54
2022-08-02T17:43:14.529Z,29.27
2022-08-02T17:48:21.706Z,28.31
2022-08-02T17:53:36.445Z,27.44
2022-08-02T17:58:38.608Z,26.61
2022-08-02T18:03:54.655Z,25.87
2022-08-02T18:08:59.628Z,25.13
2022-08-02T18:14:01.653Z,24.51
2022-08-02T18:19:04.473Z,23.97
2022-08-02T18:24:09.935Z,23.48
2022-08-02T18:29:12.406Z,23.02
2022-08-02T18:34:14.730Z,22.59
2022-08-02T18:39:17.146Z,22.21
2022-08-02T18:44:19.602Z,21.88
2022-08-02T18:49:23.577Z,21.57
2022-08-02T18:54:26.799Z,21.29
2022-08-02T18:59:36.829Z,21.06
2022-08-02T19:04:43.754Z,20.90
2022-08-02T19:09:49.230Z,20.73
2022-08-02T19:14:54.028Z,20.53
2022-08-02T19:19:56.286Z,20.35
2022-08-02T19:25:01.262Z,20.17
2022-08-02T19:30:07.401Z,20.11
2022-08-02T19:35:29.266Z,20.05
2022-08-02T19:40:34.089Z,19.95
2022-08-02T19:45:53.227Z,19.75
2022-08-02T19:51:16.690Z,19.59
2022-08-02T19:56:37.580Z,19.50
2022-08-02T20:01:48.481Z,19.45
2022-08-02T20:06:51.344Z,19.38
2022-08-02T20:11:54.982Z,19.30
2022-08-02T20:16:57.792Z,19.19
2022-08-02T20:22:00.545Z,18.99
2022-08-02T20:27:07.154Z,18.81
2022-08-02T20:32:11.567Z,18.71
2022-08-02T20:38:00.480Z,18.62
2022-08-02T20:42:42.347Z,18.52
2022-08-02T20:47:50.968Z,18.44
2022-08-02T20:52:55.163Z,18.36
2022-08-02T20:58:03.110Z,18.31
2022-08-02T21:03:14.250Z,18.28
2022-08-02T21:08:21.981Z,18.20
2022-08-02T21:13:26.889Z,18.08
2022-08-02T21:18:40.955Z,17.99
2022-08-02T21:23:48.797Z,17.91
2022-08-02T21:29:03.127Z,17.84
2022-08-02T21:34:22.135Z,17.78
2022-08-02T21:39:28.961Z,17.71
2022-08-02T21:44:38.570Z,17.64
2022-08-02T21:50:13.294Z,17.55
2022-08-02T21:55:24.242Z,17.45
2022-08-02T22:00:57.132Z,17.34
2022-08-02T22:06:12.592Z,17.23
2022-08-02T22:11:17.219Z,17.12
2022-08-02T22:16:24.043Z,16.91
2022-08-02T22:21:55.010Z,16.75
2022-08-02T22:27:05.230Z,16.63
2022-08-02T22:32:38.837Z,16.54
2022-08-02T22:38:17.506Z,16.50
2022-08-02T22:43:22.758Z,16.46
2022-08-02T22:48:40.635Z,16.42
2022-08-02T22:53:57.265Z,16.32
2022-08-02T23:04:25.902Z,16.09
2022-08-02T23:09:33.501Z,15.95
2022-08-02T23:14:59.626Z,15.83
2022-08-02T23:20:16.007Z,15.77
2022-08-02T23:25:21.976Z,15.77
2022-08-02T23:30:34.477Z,15.74
2022-08-02T23:35:50.720Z,15.70
2022-08-02T23:40:59.636Z,15.69
2022-08-02T23:46:05.652Z,15.73
2022-08-02T23:51:11.800Z,15.76
2022-08-02T23:56:29.537Z,15.77
